Washington, DC (20212)

8:39 PM EDT on July 25, 2016 (GMT -0400)
H Street Corridor - NoMa | | Change Station

Elev 56 ft 38.90 °N, 77.00 °W | Updated 3 seconds ago

Mostly Cloudy
Mostly Cloudy
92.3 °F
Feels Like 103 °F
N
0.0
Wind Variable Wind from SW
Gusts 8.0 mph

Today
High -- | Low -- °F
--% Chance of Precip.
Yesterday
High -- | Low -- °F
Precip. -- in
Pressure 29.87 in
Visibility 10.0 miles
Clouds Few 7500 ft
Mostly Cloudy 23000 ft
Heat Index 103 °F
Dew Point 74 °F
Humidity 56%
Rainfall 0.02 in
Snow Depth Not available.
6:03 AM 8:25 PM
Waning Gibbous, 61% visible
METAR KDCA 252352Z 23008KT 10SM FEW075 BKN230 34/22 A2986 RMK AO2 SLP113 T03390217 10378 20339 51009
Pressure 29.87 in
Visibility 10.0 miles
Clouds Few 7500 ft
Mostly Cloudy 23000 ft
Heat Index 103 °F
Dew Point 74 °F
Humidity 56%
Rainfall 0.02 in
Snow Depth Not available.
6:03 AM 8:25 PM
Waning Gibbous, 61% visible
METAR KDCA 252352Z 23008KT 10SM FEW075 BKN230 34/22 A2986 RMK AO2 SLP113 T03390217 10378 20339 51009
Record highs are possible for parts of the Northeast Monday and Tuesday, as parts of the central U.S. take a little breather from the worst of summer's dog day heat.

Expansive high pressure in the upper atmosphere will focus on parts of the East and West this week, sending heat indices well into the triple digits from the Mid-Atlantic states into the South.

10-Day Weather Forecast

Almanac

Astronomy

Jul. 25, 2016 Rise Set
Actual Time
Civil Twilight
Nautical Twilight
Astronomical Twilight
Moon
Length of Visible Light
Length of Day
Tomorrow will be .
, % of the Moon is Illuminated

Today's Extremes

State Highs State Lows

Community

WunderPhotos

Upload Photos

1,927,479 photos uploaded!

WunderBlog® & News

Nearby

Air Quality

  Air Quality AQ Index Pollutant
Not available.

Snow Depth

Station Depth Elevation

Earthquake Activity

City Distance Mag. Time & Date
Minimum magnitude displayed is 2.5.

Coastal Water Temperatures

Place Temperature

Stations

Nearby Weather Stations

Station Location Temp. Windchill Dew Point Humidity Wind Precip. Elev Updated Type
                   

Watches & Warnings

There are currently no watches in effect.